Time;durP1;ratioP1;P1;durP2;ratioP2;P2;SDS_P1;SDS_P2;PMS_P1;PMS_P2;Temp;Humidity;BMP_temperature;BMP_pressure;BME280_temperature;BME280_humidity;BME280_pressure;Samples;Min_cycle;Max_cycle;Signal;HPM_P1;HPM_P2
2021/06/17 00:00:23;;;;;;;7.13;5.00;;;25.40;53.80;;;;;;5037611;28;20118;-83
2021/06/17 00:02:49;;;;;;;7.15;5.22;;;25.40;53.50;;;;;;5043577;28;20044;-83
2021/06/17 00:05:16;;;;;;;5.78;5.20;;;25.30;54.20;;;;;;5014517;28;20473;-83
2021/06/17 00:07:42;;;;;;;7.50;5.22;;;25.20;54.00;;;;;;5007761;28;20028;-83
2021/06/17 00:10:12;;;;;;;6.10;4.95;;;25.20;54.20;;;;;;5037368;28;20082;-84
2021/06/17 00:12:37;;;;;;;8.32;5.45;;;25.20;54.00;;;;;;5009704;28;20029;-83
2021/06/17 00:15:06;;;;;;;5.82;5.20;;;25.00;54.30;;;;;;5024806;28;20035;-83
2021/06/17 00:17:31;;;;;;;5.90;5.10;;;25.10;54.40;;;;;;5030894;28;20059;-83
2021/06/17 00:19:57;;;;;;;5.65;4.85;;;25.10;54.50;;;;;;5041076;28;20072;-83
2021/06/17 00:22:22;;;;;;;11.52;6.53;;;25.00;54.90;;;;;;5022433;28;20104;-82
2021/06/17 00:24:48;;;;;;;12.10;5.82;;;25.00;54.70;;;;;;5025055;28;20029;-83
2021/06/17 00:27:14;;;;;;;6.20;5.57;;;25.00;54.70;;;;;;5039515;28;20040;-83
2021/06/17 00:29:39;;;;;;;8.15;6.35;;;25.00;55.00;;;;;;5021367;28;20135;-82
2021/06/17 00:32:05;;;;;;;5.40;4.93;;;25.10;54.80;;;;;;5045358;28;20029;-83
2021/06/17 00:34:30;;;;;;;5.78;4.90;;;25.10;54.80;;;;;;5023413;28;20036;-83
2021/06/17 00:36:56;;;;;;;6.45;5.85;;;25.10;54.60;;;;;;5025832;28;20219;-82
2021/06/17 00:39:21;;;;;;;5.95;4.78;;;25.00;54.60;;;;;;5026020;28;20456;-83
2021/06/17 00:41:47;;;;;;;5.93;5.43;;;25.00;54.90;;;;;;5027979;28;20632;-83
2021/06/17 00:44:12;;;;;;;6.07;5.45;;;25.00;54.70;;;;;;5027674;28;20104;-83
2021/06/17 00:46:38;;;;;;;6.20;5.47;;;24.80;55.10;;;;;;5042996;28;20123;-82
2021/06/17 00:49:05;;;;;;;5.75;5.25;;;25.00;55.10;;;;;;5027166;28;20033;-83
2021/06/17 00:51:30;;;;;;;6.18;5.10;;;24.90;55.10;;;;;;5037160;28;20455;-82
2021/06/17 00:53:56;;;;;;;5.43;4.93;;;24.80;55.20;;;;;;5024139;28;20033;-83
2021/06/17 00:56:22;;;;;;;5.80;5.15;;;24.80;55.30;;;;;;5026667;28;20045;-82
2021/06/17 00:58:48;;;;;;;5.40;4.90;;;24.70;55.70;;;;;;5021361;28;20040;-83
2021/06/17 01:01:14;;;;;;;5.68;5.20;;;24.40;55.40;;;;;;5024516;28;20036;-83
2021/06/17 01:03:39;;;;;;;5.15;4.65;;;24.60;55.60;;;;;;5023790;28;20071;-83
2021/06/17 01:06:05;;;;;;;5.28;4.82;;;24.70;55.20;;;;;;5039934;28;20046;-83
2021/06/17 01:09:04;;;;;;;6.18;5.57;;;24.70;55.60;;;;;;5038341;28;20037;-83
2021/06/17 01:11:44;;;;;;;6.57;5.32;;;24.40;55.80;;;;;;5039968;28;20473;-83
2021/06/17 01:14:21;;;;;;;5.97;4.65;;;24.40;55.60;;;;;;5056052;28;20025;-83
2021/06/17 01:17:06;;;;;;;4.63;4.32;;;24.50;55.50;;;;;;5023705;28;20028;-82
2021/06/17 01:19:32;;;;;;;4.90;4.33;;;24.60;55.40;;;;;;5044880;28;20036;-82
2021/06/17 01:21:57;;;;;;;4.82;4.38;;;24.60;55.30;;;;;;5052975;28;20037;-81
2021/06/17 01:25:02;;;;;;;5.43;4.35;;;24.60;55.50;;;;;;5054549;28;20040;-82
2021/06/17 01:28:01;;;;;;;5.40;4.97;;;24.30;55.80;;;;;;5052185;28;20495;-82
2021/06/17 01:30:26;;;;;;;5.10;4.38;;;24.40;55.90;;;;;;5030785;28;20055;-81
2021/06/17 01:33:02;;;;;;;5.57;5.07;;;24.40;56.00;;;;;;5024984;28;20028;-81
2021/06/17 01:35:28;;;;;;;5.65;5.15;;;24.20;56.30;;;;;;5028447;28;20048;-82
2021/06/17 01:37:58;;;;;;;5.28;4.78;;;24.20;56.20;;;;;;5033159;28;20033;-82
2021/06/17 01:40:26;;;;;;;6.05;4.95;;;24.20;56.00;;;;;;5056192;28;20125;-82
2021/06/17 01:42:52;;;;;;;5.88;5.03;;;24.20;56.00;;;;;;5026497;28;20029;-81
2021/06/17 01:45:18;;;;;;;5.18;4.68;;;24.10;55.70;;;;;;5028426;28;20417;-81
2021/06/17 01:47:45;;;;;;;5.32;4.93;;;24.10;56.00;;;;;;5026522;28;20148;-82
2021/06/17 01:50:11;;;;;;;5.93;5.40;;;24.00;56.40;;;;;;5026552;28;20036;-82
2021/06/17 01:52:37;;;;;;;4.95;4.43;;;24.00;56.70;;;;;;5044327;28;20025;-82
2021/06/17 01:55:03;;;;;;;5.45;4.95;;;23.90;56.30;;;;;;5043003;28;20048;-81
2021/06/17 01:57:28;;;;;;;6.60;5.22;;;23.90;56.60;;;;;;5024453;28;20041;-81
2021/06/17 01:59:54;;;;;;;6.05;4.93;;;23.90;56.50;;;;;;5034877;28;20041;-82
2021/06/17 02:02:20;;;;;;;6.53;4.57;;;23.90;56.60;;;;;;5032034;28;20028;-81
2021/06/17 02:04:50;;;;;;;5.80;4.90;;;23.90;56.40;;;;;;5024216;28;20032;-82
2021/06/17 02:07:16;;;;;;;5.05;4.65;;;23.80;56.50;;;;;;5028983;28;20147;-81
2021/06/17 02:09:41;;;;;;;5.80;5.20;;;23.80;56.70;;;;;;5026194;28;20041;-82
2021/06/17 02:12:07;;;;;;;5.30;4.80;;;23.60;57.50;;;;;;5035810;28;20387;-82
2021/06/17 02:14:33;;;;;;;6.45;4.72;;;23.50;57.40;;;;;;5014733;28;20036;-82
2021/06/17 02:16:59;;;;;;;5.10;4.60;;;23.50;57.20;;;;;;5020356;28;20041;-82
2021/06/17 02:19:26;;;;;;;5.43;4.93;;;23.50;57.60;;;;;;5027829;28;20569;-81
2021/06/17 02:21:53;;;;;;;9.57;5.03;;;23.40;57.60;;;;;;5038800;28;20033;-82
2021/06/17 02:24:19;;;;;;;9.90;5.32;;;23.40;57.30;;;;;;5024259;28;20040;-81
2021/06/17 02:26:44;;;;;;;5.45;4.90;;;23.50;57.90;;;;;;5025428;28;20033;-82
2021/06/17 02:29:11;;;;;;;6.00;4.97;;;23.50;57.30;;;;;;5030696;28;20029;-82
2021/06/17 02:31:40;;;;;;;8.55;5.15;;;23.50;57.10;;;;;;5023224;28;20435;-81
2021/06/17 02:34:05;;;;;;;5.38;4.90;;;23.50;56.90;;;;;;5058037;28;20043;-81
2021/06/17 02:36:31;;;;;;;5.10;4.68;;;23.50;57.50;;;;;;5026960;28;20021;-82
2021/06/17 02:39:02;;;;;;;6.25;4.97;;;23.40;57.00;;;;;;5022453;28;20407;-83
2021/06/17 02:41:27;;;;;;;4.90;4.50;;;23.30;57.80;;;;;;5034248;28;20029;-82
2021/06/17 02:43:56;;;;;;;7.88;5.15;;;23.30;57.70;;;;;;5032780;28;20020;-82
2021/06/17 02:46:23;;;;;;;6.00;4.82;;;23.30;57.40;;;;;;5022358;28;20376;-82
2021/06/17 02:48:52;;;;;;;7.78;4.88;;;23.30;57.50;;;;;;5032516;28;20037;-82
2021/06/17 02:51:18;;;;;;;8.05;5.38;;;23.30;57.80;;;;;;5022784;28;20035;-81
2021/06/17 02:53:43;;;;;;;5.40;4.75;;;23.30;57.60;;;;;;5023832;28;20021;-82
2021/06/17 02:56:19;;;;;;;7.53;4.82;;;23.20;57.80;;;;;;5030332;28;20033;-81
2021/06/17 02:59:04;;;;;;;6.72;4.80;;;23.20;57.90;;;;;;5044779;28;20037;-84
2021/06/17 03:01:34;;;;;;;6.22;4.50;;;23.20;57.60;;;;;;5045411;28;20083;-85
2021/06/17 03:04:07;;;;;;;5.18;4.22;;;23.10;58.00;;;;;;5022985;28;20494;-85
2021/06/17 03:06:39;;;;;;;5.82;4.25;;;23.20;57.80;;;;;;5021137;28;20116;-85
2021/06/17 03:09:13;;;;;;;6.70;5.45;;;23.10;57.90;;;;;;5027430;28;20044;-86
2021/06/17 03:11:39;;;;;;;4.90;4.50;;;23.00;58.50;;;;;;5047911;28;20070;-85
2021/06/17 03:14:08;;;;;;;5.07;4.47;;;23.00;57.90;;;;;;5026731;28;20028;-85
2021/06/17 03:16:35;;;;;;;4.53;4.13;;;23.10;58.30;;;;;;5027590;28;20098;-85
2021/06/17 03:19:00;;;;;;;5.57;5.07;;;23.00;58.00;;;;;;5043213;28;20036;-84
2021/06/17 03:21:32;;;;;;;6.45;5.32;;;23.00;58.60;;;;;;5028398;28;20210;-84
2021/06/17 03:23:58;;;;;;;5.35;4.63;;;23.00;58.60;;;;;;5030117;28;20036;-84
2021/06/17 03:26:24;;;;;;;8.93;4.50;;;22.80;58.90;;;;;;5026896;28;20546;-85
2021/06/17 03:28:50;;;;;;;7.30;5.07;;;22.70;58.30;;;;;;5025380;28;20095;-85
2021/06/17 03:31:16;;;;;;;5.90;4.55;;;22.70;58.80;;;;;;5028302;28;20052;-84
2021/06/17 03:33:41;;;;;;;7.22;5.13;;;22.60;58.60;;;;;;5034982;28;20124;-84
2021/06/17 03:36:07;;;;;;;4.78;4.20;;;22.80;58.90;;;;;;5029562;28;20515;-84
2021/06/17 03:38:33;;;;;;;4.60;4.20;;;22.80;58.90;;;;;;5032767;28;20024;-84
2021/06/17 03:40:59;;;;;;;5.05;4.65;;;22.70;58.90;;;;;;5029036;28;20378;-85
2021/06/17 03:43:25;;;;;;;6.60;5.50;;;22.80;58.30;;;;;;5022618;28;20033;-85
2021/06/17 03:45:50;;;;;;;5.25;4.80;;;22.60;59.20;;;;;;5024509;28;20481;-85
2021/06/17 03:48:16;;;;;;;5.88;5.18;;;22.60;58.90;;;;;;5027312;28;20021;-84
2021/06/17 03:50:42;;;;;;;5.50;5.00;;;22.50;59.30;;;;;;5037978;28;20481;-84
2021/06/17 03:53:07;;;;;;;5.30;4.88;;;22.60;59.30;;;;;;5041971;28;20021;-84
2021/06/17 03:55:33;;;;;;;5.00;4.57;;;22.70;59.60;;;;;;5022828;28;20036;-85
2021/06/17 03:57:59;;;;;;;5.45;4.90;;;22.60;59.40;;;;;;5024145;28;20029;-85
2021/06/17 04:00:30;;;;;;;6.65;4.95;;;22.50;59.80;;;;;;5036023;28;20040;-85
2021/06/17 04:02:55;;;;;;;6.15;4.95;;;22.70;59.70;;;;;;5024757;28;20040;-85
2021/06/17 04:05:21;;;;;;;6.00;4.82;;;22.80;59.40;;;;;;5033554;28;20028;-84
2021/06/17 04:07:47;;;;;;;6.82;4.78;;;23.00;58.80;;;;;;5023943;28;20041;-85
2021/06/17 04:10:14;;;;;;;5.82;5.07;;;22.90;58.70;;;;;;5031022;28;20496;-85
2021/06/17 04:12:47;;;;;;;10.16;4.66;;;23.10;58.40;;;;;;4887035;28;10000883;-85
2021/06/17 04:15:12;;;;;;;7.95;5.10;;;23.20;58.10;;;;;;5020601;28;20265;-85
2021/06/17 04:17:42;;;;;;;5.50;4.97;;;23.20;58.30;;;;;;5058232;28;20063;-85
2021/06/17 04:20:11;;;;;;;5.68;5.07;;;23.40;58.00;;;;;;5041058;28;20040;-86
2021/06/17 04:22:43;;;;;;;6.63;4.60;;;23.40;57.60;;;;;;5056910;28;20081;-85
2021/06/17 04:25:09;;;;;;;4.97;4.57;;;23.50;57.60;;;;;;5037908;28;20470;-85
2021/06/17 04:27:34;;;;;;;5.88;4.13;;;23.70;57.30;;;;;;5032915;28;20041;-85
2021/06/17 04:30:00;;;;;;;13.00;5.07;;;23.80;57.20;;;;;;5024795;28;20040;-85
2021/06/17 04:32:28;;;;;;;6.22;4.53;;;23.90;57.00;;;;;;5040211;28;20063;-85
2021/06/17 04:34:55;;;;;;;7.78;4.97;;;24.00;57.10;;;;;;5040738;28;20508;-86
2021/06/17 04:37:23;;;;;;;9.90;5.50;;;24.10;56.70;;;;;;5025795;28;20493;-85
2021/06/17 04:39:48;;;;;;;6.10;5.03;;;24.30;56.90;;;;;;5044570;28;20040;-87
2021/06/17 04:42:14;;;;;;;5.72;4.65;;;24.50;56.10;;;;;;5023883;28;20036;-85
2021/06/17 04:44:41;;;;;;;7.20;4.65;;;24.60;56.60;;;;;;5029082;28;20022;-85
2021/06/17 04:47:07;;;;;;;7.53;5.05;;;24.80;55.70;;;;;;5026128;28;20043;-85
2021/06/17 04:49:34;;;;;;;4.55;4.18;;;25.00;55.50;;;;;;5028309;28;20032;-85
2021/06/17 04:52:00;;;;;;;5.38;4.78;;;25.20;54.30;;;;;;5028679;28;20051;-85
2021/06/17 04:54:25;;;;;;;5.95;4.93;;;25.30;54.90;;;;;;5031226;28;20134;-85
2021/06/17 04:56:51;;;;;;;6.30;4.10;;;25.40;53.80;;;;;;4992071;28;20026;-85
2021/06/17 04:59:16;;;;;;;5.75;4.18;;;25.50;54.30;;;;;;5024916;28;20476;-84
2021/06/17 05:01:42;;;;;;;4.65;4.25;;;25.80;55.10;;;;;;4687514;28;10000347;-85
2021/06/17 05:04:09;;;;;;;4.32;3.92;;;26.00;54.50;;;;;;5034672;28;20044;-85
2021/06/17 05:06:37;;;;;;;7.70;4.20;;;26.30;55.00;;;;;;5052344;28;20416;-85
2021/06/17 05:11:50;;;;;;;4.30;3.92;;;26.40;53.50;;;;;;5042489;28;20120;-85
2021/06/17 05:14:16;;;;;;;6.20;4.30;;;26.80;52.80;;;;;;5024054;28;20028;-85
2021/06/17 05:16:41;;;;;;;5.53;4.55;;;27.10;54.20;;;;;;5021767;28;20116;-85
2021/06/17 05:19:07;;;;;;;4.90;4.30;;;27.20;52.30;;;;;;5032631;28;20029;-85
2021/06/17 05:21:33;;;;;;;5.18;3.72;;;27.30;53.90;;;;;;5022019;28;20025;-85
2021/06/17 05:23:58;;;;;;;4.60;4.20;;;27.50;54.70;;;;;;5046638;28;20037;-85
2021/06/17 05:26:24;;;;;;;6.55;4.28;;;27.50;52.80;;;;;;5023540;28;20040;-85
2021/06/17 05:28:49;;;;;;;4.43;3.38;;;28.10;54.90;;;;;;5021126;28;20336;-85
2021/06/17 05:31:15;;;;;;;5.60;4.07;;;27.90;51.50;;;;;;5031122;28;20086;-85
2021/06/17 05:33:43;;;;;;;4.05;3.60;;;27.60;51.60;;;;;;5033393;28;20081;-85
2021/06/17 05:36:08;;;;;;;4.70;4.18;;;27.90;51.70;;;;;;5029341;28;20021;-86
2021/06/17 05:38:34;;;;;;;4.05;3.72;;;28.40;53.70;;;;;;5024527;28;20033;-86
2021/06/17 05:40:59;;;;;;;5.72;3.90;;;28.80;53.20;;;;;;5017857;28;20204;-86
2021/06/17 05:43:25;;;;;;;6.60;4.03;;;28.80;52.70;;;;;;5032183;28;20361;-85
2021/06/17 05:45:51;;;;;;;8.93;3.85;;;29.00;51.30;;;;;;5021491;28;20029;-87
2021/06/17 05:48:16;;;;;;;5.03;4.35;;;28.90;50.20;;;;;;5019422;28;20049;-86
2021/06/17 05:50:42;;;;;;;6.72;3.67;;;29.40;52.60;;;;;;5031207;28;20061;-85
2021/06/17 05:53:08;;;;;;;4.18;3.30;;;29.40;48.60;;;;;;5022840;28;20032;-85
2021/06/17 05:55:34;;;;;;;5.38;4.00;;;29.40;50.20;;;;;;5026795;28;20025;-85
2021/06/17 05:57:59;;;;;;;7.35;3.80;;;29.80;50.90;;;;;;5030761;28;20032;-85
2021/06/17 06:00:25;;;;;;;4.60;4.22;;;29.80;49.50;;;;;;5033604;28;20103;-85
2021/06/17 06:02:50;;;;;;;4.78;3.67;;;30.00;50.10;;;;;;5047045;28;20401;-84
2021/06/17 06:05:16;;;;;;;5.20;3.92;;;30.00;48.80;;;;;;5026499;28;20094;-85
2021/06/17 06:11:06;;;;;;;4.25;3.75;;;30.50;49.30;;;;;;5049705;28;20074;-87
2021/06/17 06:13:32;;;;;;;4.40;4.00;;;30.40;49.50;;;;;;5019493;28;20036;-85
2021/06/17 06:15:58;;;;;;;5.93;3.83;;;30.80;50.80;;;;;;5051539;28;20413;-86
2021/06/17 06:18:27;;;;;;;4.95;4.05;;;30.60;50.10;;;;;;5022121;28;20047;-88
2021/06/17 06:20:56;;;;;;;3.90;3.53;;;31.20;50.60;;;;;;5025675;28;20378;-87
2021/06/17 06:23:22;;;;;;;5.13;3.65;;;31.10;47.60;;;;;;5034616;28;20021;-86
2021/06/17 06:25:49;;;;;;;5.25;3.95;;;30.80;49.10;;;;;;5021240;28;20355;-86
2021/06/17 06:28:15;;;;;;;5.50;4.32;;;30.90;48.70;;;;;;5024570;28;20043;-87
2021/06/17 06:30:40;;;;;;;8.65;3.92;;;31.60;49.60;;;;;;5027813;28;20422;-86
2021/06/17 06:33:06;;;;;;;3.60;3.30;;;32.10;48.70;;;;;;5027179;28;20086;-86
2021/06/17 06:35:32;;;;;;;6.07;4.05;;;32.60;45.60;;;;;;5022633;28;20364;-87
2021/06/17 06:37:57;;;;;;;4.35;3.95;;;32.70;46.90;;;;;;5024866;28;20045;-86
2021/06/17 06:40:25;;;;;;;7.55;4.10;;;32.70;48.20;;;;;;5021789;28;20032;-87
2021/06/17 06:42:53;;;;;;;5.60;3.35;;;32.80;44.30;;;;;;5028507;28;20040;-87
2021/06/17 06:45:18;;;;;;;4.15;3.75;;;32.50;47.50;;;;;;5034096;28;20028;-86
2021/06/17 06:47:44;;;;;;;4.30;3.50;;;32.70;48.70;;;;;;5031376;28;20737;-86
2021/06/17 06:50:10;;;;;;;7.38;3.83;;;32.60;44.60;;;;;;5024895;28;20037;-86
2021/06/17 06:52:36;;;;;;;4.53;3.83;;;33.20;47.60;;;;;;5021289;28;20396;-86
2021/06/17 06:55:02;;;;;;;3.95;3.55;;;33.00;44.70;;;;;;5030517;28;20083;-85
2021/06/17 06:57:28;;;;;;;3.80;3.50;;;33.30;47.30;;;;;;5041646;28;20094;-85
2021/06/17 06:59:53;;;;;;;5.68;4.00;;;34.40;45.30;;;;;;5035296;28;20040;-85
2021/06/17 07:02:19;;;;;;;5.07;3.47;;;34.80;44.50;;;;;;5023998;28;20036;-85
2021/06/17 07:04:45;;;;;;;6.18;4.18;;;34.80;44.20;;;;;;5050845;28;20024;-84
2021/06/17 07:07:10;;;;;;;4.63;4.03;;;34.20;42.00;;;;;;5033706;28;20051;-85
2021/06/17 07:09:36;;;;;;;4.88;3.40;;;34.60;45.10;;;;;;5032747;28;20028;-84
2021/06/17 07:12:04;;;;;;;3.88;3.58;;;34.90;43.00;;;;;;5044570;28;20045;-85
2021/06/17 07:14:30;;;;;;;5.40;3.72;;;34.60;44.70;;;;;;5043030;28;20040;-85
2021/06/17 07:16:56;;;;;;;3.92;3.53;;;34.90;44.50;;;;;;5046381;28;20037;-84
2021/06/17 07:19:21;;;;;;;5.63;3.75;;;35.50;41.40;;;;;;5038068;28;20033;-85
2021/06/17 07:21:47;;;;;;;3.45;3.10;;;36.00;43.00;;;;;;5031919;28;20102;-85
2021/06/17 07:24:12;;;;;;;3.60;3.03;;;35.90;42.90;;;;;;5035972;28;20037;-85
2021/06/17 07:26:39;;;;;;;3.88;3.25;;;36.10;41.90;;;;;;5028254;28;20037;-86
2021/06/17 07:29:05;;;;;;;5.38;3.72;;;35.50;43.00;;;;;;5057373;28;20151;-85
2021/06/17 07:31:30;;;;;;;5.63;3.83;;;36.00;42.40;;;;;;5024094;28;20116;-85
2021/06/17 07:33:56;;;;;;;6.53;3.53;;;36.70;41.80;;;;;;5056430;28;20037;-84
2021/06/17 07:36:21;;;;;;;4.95;3.03;;;37.00;40.90;;;;;;5029811;28;20094;-83
2021/06/17 07:38:47;;;;;;;4.70;3.97;;;36.80;40.90;;;;;;5040367;28;20043;-84
2021/06/17 07:41:13;;;;;;;5.18;3.78;;;36.60;39.30;;;;;;5031594;28;20055;-83
2021/06/17 07:43:38;;;;;;;6.05;4.05;;;36.20;41.60;;;;;;5025382;28;20043;-82
2021/06/17 07:46:04;;;;;;;7.68;3.50;;;36.20;39.00;;;;;;5035735;28;20663;-82
2021/06/17 07:48:31;;;;;;;4.40;3.70;;;37.10;40.60;;;;;;5042775;28;20021;-82
2021/06/17 07:50:56;;;;;;;5.95;3.67;;;37.20;39.60;;;;;;5059799;28;20120;-81
2021/06/17 07:53:22;;;;;;;5.13;3.60;;;37.30;39.90;;;;;;5057447;28;20033;-80
2021/06/17 07:55:47;;;;;;;4.57;3.97;;;37.00;37.60;;;;;;5044342;28;20104;-80
2021/06/17 07:58:13;;;;;;;6.82;3.65;;;36.80;41.10;;;;;;5042290;28;20029;-80
2021/06/17 08:00:38;;;;;;;3.95;3.60;;;36.80;38.80;;;;;;5026164;28;20055;-80
2021/06/17 08:03:04;;;;;;;7.22;3.60;;;37.00;40.20;;;;;;5044563;28;20036;-80
2021/06/17 08:05:30;;;;;;;4.68;4.22;;;37.40;39.30;;;;;;5045478;28;20041;-80
2021/06/17 08:07:55;;;;;;;4.05;3.65;;;37.70;40.00;;;;;;5064094;28;20484;-79
2021/06/17 08:10:21;;;;;;;6.80;3.70;;;37.80;38.90;;;;;;5066089;28;20033;-79
2021/06/17 08:12:47;;;;;;;8.70;4.72;;;38.30;38.40;;;;;;5059039;28;20036;-79
2021/06/17 08:15:12;;;;;;;4.28;3.88;;;38.00;38.40;;;;;;5056414;28;20047;-79
2021/06/17 08:17:38;;;;;;;4.43;3.60;;;37.60;36.70;;;;;;5039349;28;20025;-78
2021/06/17 08:20:05;;;;;;;4.93;3.67;;;38.20;38.20;;;;;;5043284;28;20078;-78
2021/06/17 08:22:31;;;;;;;7.50;3.95;;;39.00;37.20;;;;;;5057995;28;20029;-78
2021/06/17 08:24:56;;;;;;;7.95;3.60;;;39.20;36.90;;;;;;5041071;28;20029;-77
2021/06/17 08:27:22;;;;;;;3.55;3.25;;;38.80;37.60;;;;;;5042926;28;20477;-77
2021/06/17 08:29:47;;;;;;;6.30;4.28;;;38.80;36.70;;;;;;5023545;28;20155;-77
2021/06/17 08:32:13;;;;;;;4.18;3.78;;;38.70;37.50;;;;;;5028187;28;20041;-78
2021/06/17 08:34:38;;;;;;;4.82;3.10;;;38.90;36.10;;;;;;5045484;28;20047;-78
2021/06/17 08:37:05;;;;;;;4.07;3.53;;;39.20;36.60;;;;;;5030870;28;20025;-77
2021/06/17 08:39:31;;;;;;;8.30;3.60;;;39.00;34.90;;;;;;5047745;28;20032;-78
2021/06/17 08:41:57;;;;;;;3.72;3.42;;;38.50;36.20;;;;;;5045448;28;20020;-77
2021/06/17 08:44:23;;;;;;;5.43;2.97;;;39.00;37.60;;;;;;5031730;28;20541;-77
2021/06/17 08:46:48;;;;;;;3.35;3.05;;;39.30;35.30;;;;;;5044390;28;20032;-78
2021/06/17 08:49:15;;;;;;;4.25;3.20;;;39.40;36.90;;;;;;5062871;28;20131;-77
2021/06/17 08:51:41;;;;;;;3.90;3.60;;;39.60;36.00;;;;;;5062261;28;20029;-77
2021/06/17 08:54:07;;;;;;;3.85;3.15;;;39.40;36.20;;;;;;5030678;28;20610;-77
2021/06/17 08:56:33;;;;;;;3.03;2.80;;;39.70;34.40;;;;;;5046829;28;20024;-78
2021/06/17 08:58:58;;;;;;;3.53;3.10;;;40.00;36.10;;;;;;5045799;28;20571;-78
2021/06/17 09:01:24;;;;;;;3.25;2.95;;;40.00;35.20;;;;;;5059091;28;20241;-77
2021/06/17 09:03:49;;;;;;;4.30;3.85;;;40.00;32.70;;;;;;5036726;28;20756;-77
2021/06/17 09:06:18;;;;;;;3.55;3.30;;;40.30;34.80;;;;;;5056238;28;20036;-77
2021/06/17 09:08:58;;;;;;;5.05;2.88;;;40.40;34.90;;;;;;5037405;28;20511;-77
2021/06/17 09:11:23;;;;;;;4.53;3.15;;;40.60;34.90;;;;;;5028262;28;20025;-77
2021/06/17 09:13:50;;;;;;;5.75;3.38;;;40.70;34.90;;;;;;5038625;28;20405;-77
2021/06/17 09:16:23;;;;;;;7.40;3.40;;;40.50;34.50;;;;;;5058085;28;20024;-78
2021/06/17 09:18:49;;;;;;;5.38;3.38;;;40.60;32.00;;;;;;5035764;28;20025;-78
2021/06/17 09:21:14;;;;;;;6.00;3.22;;;40.40;32.30;;;;;;5039993;28;21726;-77
2021/06/17 09:23:40;;;;;;;3.95;3.17;;;40.50;31.90;;;;;;5041965;28;20476;-77
2021/06/17 09:26:16;;;;;;;5.70;3.13;;;40.40;31.50;;;;;;5063385;28;20560;-76
2021/06/17 09:28:48;;;;;;;5.45;3.70;;;40.10;32.30;;;;;;5043602;28;20024;-77
2021/06/17 09:31:15;;;;;;;4.68;4.07;;;40.40;32.00;;;;;;5060313;28;20029;-78
2021/06/17 09:33:44;;;;;;;3.67;3.38;;;40.60;32.20;;;;;;5061253;28;20067;-77
2021/06/17 09:36:10;;;;;;;7.07;3.78;;;40.70;32.40;;;;;;5063070;28;20126;-77
2021/06/17 09:38:43;;;;;;;12.32;4.00;;;40.50;32.90;;;;;;5061650;28;20048;-77
2021/06/17 09:41:08;;;;;;;8.25;3.53;;;41.00;32.80;;;;;;5029562;28;20175;-77
2021/06/17 09:43:38;;;;;;;5.32;3.75;;;40.90;32.60;;;;;;5025721;28;20136;-77
2021/06/17 09:46:05;;;;;;;4.45;2.97;;;40.60;32.20;;;;;;5044364;28;20033;-77
2021/06/17 09:48:45;;;;;;;6.50;3.28;;;40.40;32.80;;;;;;5062883;28;20028;-78
2021/06/17 09:51:44;;;;;;;5.85;3.22;;;41.00;32.30;;;;;;5057078;28;20021;-77
2021/06/17 09:54:10;;;;;;;3.63;3.28;;;41.00;31.90;;;;;;5058453;28;20442;-77
2021/06/17 09:56:36;;;;;;;5.22;3.17;;;41.00;31.20;;;;;;5063020;28;20032;-77
2021/06/17 09:59:03;;;;;;;8.05;3.40;;;40.70;32.20;;;;;;5043579;28;20036;-77
2021/06/17 10:01:34;;;;;;;4.60;2.97;;;41.30;31.80;;;;;;5044002;28;20132;-77
2021/06/17 10:04:04;;;;;;;3.63;3.30;;;41.50;32.00;;;;;;5037687;28;20148;-77
2021/06/17 10:06:29;;;;;;;3.25;3.05;;;41.20;31.50;;;;;;5040210;28;20293;-77
2021/06/17 10:08:55;;;;;;;5.38;2.67;;;41.20;31.10;;;;;;5040819;28;20131;-77
2021/06/17 10:11:21;;;;;;;3.25;2.85;;;41.10;30.00;;;;;;5056901;28;20553;-77
2021/06/17 10:13:47;;;;;;;6.85;3.30;;;41.40;31.10;;;;;;5019938;28;20149;-77
2021/06/17 10:16:17;;;;;;;8.30;3.75;;;41.40;32.00;;;;;;5061282;28;20074;-76
2021/06/17 10:18:44;;;;;;;3.80;2.92;;;41.80;32.40;;;;;;5046862;28;20029;-77
2021/06/17 10:21:13;;;;;;;3.50;3.20;;;42.20;30.80;;;;;;5030262;28;20027;-77
2021/06/17 10:23:39;;;;;;;9.77;3.60;;;42.20;30.80;;;;;;5042880;28;20751;-76
2021/06/17 10:26:05;;;;;;;3.38;3.00;;;42.20;30.50;;;;;;5063191;28;20037;-77
2021/06/17 10:28:47;;;;;;;3.58;3.22;;;42.30;30.80;;;;;;5041134;28;20028;-76
2021/06/17 10:31:15;;;;;;;6.32;3.10;;;42.40;31.50;;;;;;5046316;28;20526;-77
2021/06/17 10:33:40;;;;;;;4.75;2.97;;;42.70;30.70;;;;;;5053833;28;20866;-77
2021/06/17 10:36:24;;;;;;;6.80;3.58;;;42.80;30.10;;;;;;5043579;28;20032;-76
2021/06/17 10:39:17;;;;;;;4.93;3.40;;;42.90;30.60;;;;;;5062133;28;20376;-77
2021/06/17 10:41:51;;;;;;;4.07;2.45;;;43.10;30.20;;;;;;5060496;28;20064;-77
2021/06/17 10:44:36;;;;;;;4.90;3.13;;;43.00;30.80;;;;;;5055089;28;20427;-77
2021/06/17 10:47:05;;;;;;;;;;;43.20;31.10;;;;;;5041882;28;20044;-77
2021/06/17 10:49:42;;;;;;;6.68;3.35;;;43.10;29.90;;;;;;5064107;28;19940;-77
2021/06/17 10:52:27;;;;;;;5.55;3.45;;;43.30;30.80;;;;;;5060145;28;20055;-77
2021/06/17 10:54:58;;;;;;;;;;;43.70;29.70;;;;;;5061155;28;20024;-76
2021/06/17 10:57:44;;;;;;;5.75;3.08;;;43.80;29.50;;;;;;5057653;28;19951;-77
2021/06/17 11:00:25;;;;;;;3.55;3.05;;;43.70;30.00;;;;;;5057430;28;20044;-78
2021/06/17 11:03:06;;;;;;;4.95;3.30;;;44.10;29.40;;;;;;5057608;28;20029;-77
2021/06/17 11:05:32;;;;;;;4.65;3.17;;;44.10;29.50;;;;;;5062866;28;20025;-77
2021/06/17 11:08:13;;;;;;;3.92;2.97;;;44.20;29.30;;;;;;5074171;28;20044;-78
2021/06/17 11:10:48;;;;;;;5.25;2.75;;;44.00;28.50;;;;;;5062855;28;20017;-77
2021/06/17 11:13:26;;;;;;;;;;;44.20;29.50;;;;;;5064596;28;20074;-77
2021/06/17 11:15:52;;;;;;;5.03;2.97;;;44.50;29.10;;;;;;5065142;28;19999;-78
2021/06/17 11:18:40;;;;;;;3.30;3.00;;;44.70;28.90;;;;;;5050124;28;20481;-78
2021/06/17 11:21:27;;;;;;;8.23;2.85;;;44.90;28.60;;;;;;5062993;28;20511;-78
2021/06/17 11:24:21;;;;;;;12.48;3.22;;;44.70;28.80;;;;;;5057242;28;20068;-77
2021/06/17 11:26:51;;;;;;;3.95;2.30;;;45.00;28.60;;;;;;5041347;28;20059;-78
2021/06/17 11:29:21;;;;;;;3.42;2.40;;;45.00;28.60;;;;;;5030280;28;20524;-78
2021/06/17 11:31:51;;;;;;;5.18;2.58;;;45.10;28.90;;;;;;5024025;28;20032;-75
2021/06/17 11:34:41;;;;;;;3.92;2.47;;;45.30;28.70;;;;;;5059521;28;20028;-76
2021/06/17 11:37:13;;;;;;;6.18;2.63;;;45.50;28.10;;;;;;5059249;28;20033;-78
2021/06/17 11:39:39;;;;;;;3.30;3.10;;;45.10;27.50;;;;;;5056341;28;20108;-75
2021/06/17 11:42:06;;;;;;;2.95;2.42;;;45.40;28.60;;;;;;5038598;28;20115;-75
2021/06/17 11:44:32;;;;;;;3.70;2.40;;;45.50;28.30;;;;;;5060599;28;20029;-76
2021/06/17 11:47:07;;;;;;;5.28;2.47;;;45.60;28.70;;;;;;5040359;28;20060;-76
2021/06/17 11:49:33;;;;;;;2.45;2.22;;;45.70;28.00;;;;;;5046018;28;20442;-78
2021/06/17 11:52:10;;;;;;;3.53;2.28;;;45.80;27.20;;;;;;5060884;28;20097;-75
2021/06/17 11:54:36;;;;;;;2.92;2.60;;;45.70;27.10;;;;;;5043841;28;20032;-75
2021/06/17 11:57:02;;;;;;;3.80;2.17;;;45.70;27.10;;;;;;5042450;28;20041;-76
2021/06/17 11:59:32;;;;;;;2.60;2.30;;;45.80;27.60;;;;;;5060721;28;20472;-78
2021/06/17 12:02:21;;;;;;;3.38;2.55;;;46.10;27.70;;;;;;5048550;28;20516;-78
2021/06/17 12:05:01;;;;;;;3.80;2.33;;;45.80;26.50;;;;;;5058688;28;20108;-75
2021/06/17 12:07:28;;;;;;;3.17;2.40;;;46.10;27.30;;;;;;5056221;28;20043;-76
2021/06/17 12:10:17;;;;;;;3.55;2.35;;;46.20;27.60;;;;;;5045072;28;20085;-75
2021/06/17 12:12:47;;;;;;;2.53;2.42;;;46.30;26.90;;;;;;5060640;28;20036;-75
2021/06/17 12:15:17;;;;;;;2.65;1.88;;;46.00;27.50;;;;;;5047581;28;20484;-78
2021/06/17 12:17:44;;;;;;;3.78;2.25;;;45.90;27.10;;;;;;5060248;28;20093;-77
2021/06/17 12:20:32;;;;;;;2.47;2.05;;;46.00;26.10;;;;;;5060763;28;20040;-78
2021/06/17 12:22:59;;;;;;;4.85;2.50;;;46.30;27.20;;;;;;5062159;28;20465;-75
2021/06/17 12:25:28;;;;;;;3.45;2.45;;;46.60;26.70;;;;;;5056322;28;20043;-76
2021/06/17 12:27:54;;;;;;;3.72;2.55;;;46.60;26.50;;;;;;5058494;28;20093;-76
2021/06/17 12:30:39;;;;;;;4.65;2.38;;;46.50;25.70;;;;;;5040462;28;20041;-75
2021/06/17 12:33:21;;;;;;;3.90;2.28;;;46.40;26.60;;;;;;5047412;28;20500;-76
2021/06/17 12:35:53;;;;;;;2.55;2.30;;;46.40;25.80;;;;;;5057378;28;20040;-79
2021/06/17 12:38:37;;;;;;;3.80;2.38;;;46.60;27.00;;;;;;5061240;28;20503;-78
2021/06/17 12:41:38;;;;;;;4.40;2.40;;;46.50;26.30;;;;;;5061544;28;20513;-78
2021/06/17 12:44:03;;;;;;;4.63;2.63;;;46.60;25.40;;;;;;5047376;28;20613;-78
2021/06/17 12:46:40;;;;;;;3.03;2.47;;;46.10;26.80;;;;;;5042572;28;20044;-75
2021/06/17 12:49:25;;;;;;;4.55;2.10;;;46.40;25.50;;;;;;5049298;28;20032;-76
2021/06/17 12:52:07;;;;;;;4.55;2.88;;;46.50;26.70;;;;;;5043983;28;20032;-75
2021/06/17 12:54:37;;;;;;;6.20;2.50;;;46.70;26.70;;;;;;5062311;28;20051;-75
2021/06/17 12:57:05;;;;;;;3.63;2.55;;;46.70;26.20;;;;;;5045958;28;20033;-78
2021/06/17 12:59:38;;;;;;;6.90;2.35;;;46.50;26.00;;;;;;5063371;28;20044;-76
2021/06/17 13:02:04;;;;;;;4.78;2.28;;;46.70;25.80;;;;;;5062854;28;20029;-75